sensor_id;sensor_type;location;lat;lon;timestamp;P1;durP1;ratioP1;P2;durP2;ratioP2
59476;SDS011;73078;49.762;6.594;2024-03-02T00:00:20;2.97;;;1.80;;
59476;SDS011;73078;49.762;6.594;2024-03-02T00:02:47;1.80;;;1.63;;
59476;SDS011;73078;49.762;6.594;2024-03-02T00:05:17;3.22;;;1.80;;
59476;SDS011;73078;49.762;6.594;2024-03-02T00:07:44;3.35;;;2.00;;
59476;SDS011;73078;49.762;6.594;2024-03-02T00:10:11;2.08;;;1.80;;
59476;SDS011;73078;49.762;6.594;2024-03-02T00:12:38;4.28;;;1.90;;
59476;SDS011;73078;49.762;6.594;2024-03-02T00:15:13;2.58;;;2.30;;
59476;SDS011;73078;49.762;6.594;2024-03-02T00:17:42;2.92;;;2.00;;
59476;SDS011;73078;49.762;6.594;2024-03-02T00:20:09;2.50;;;2.30;;
59476;SDS011;73078;49.762;6.594;2024-03-02T00:22:35;2.30;;;1.70;;
59476;SDS011;73078;49.762;6.594;2024-03-02T00:25:02;2.92;;;1.80;;
59476;SDS011;73078;49.762;6.594;2024-03-02T00:27:28;1.85;;;1.60;;
59476;SDS011;73078;49.762;6.594;2024-03-02T00:29:54;3.40;;;1.65;;
59476;SDS011;73078;49.762;6.594;2024-03-02T00:32:21;1.63;;;1.52;;
59476;SDS011;73078;49.762;6.594;2024-03-02T00:34:47;3.53;;;1.90;;
59476;SDS011;73078;49.762;6.594;2024-03-02T00:37:13;4.78;;;1.73;;
59476;SDS011;73078;49.762;6.594;2024-03-02T00:39:39;1.90;;;1.73;;
59476;SDS011;73078;49.762;6.594;2024-03-02T00:42:05;3.92;;;2.38;;
59476;SDS011;73078;49.762;6.594;2024-03-02T00:44:32;2.20;;;1.88;;
59476;SDS011;73078;49.762;6.594;2024-03-02T00:47:00;1.50;;;1.40;;
59476;SDS011;73078;49.762;6.594;2024-03-02T00:49:27;2.63;;;1.80;;
59476;SDS011;73078;49.762;6.594;2024-03-02T00:51:53;2.83;;;1.80;;
59476;SDS011;73078;49.762;6.594;2024-03-02T00:54:20;2.13;;;1.88;;
59476;SDS011;73078;49.762;6.594;2024-03-02T00:56:47;1.60;;;1.50;;
59476;SDS011;73078;49.762;6.594;2024-03-02T00:59:13;3.50;;;1.75;;
59476;SDS011;73078;49.762;6.594;2024-03-02T01:01:39;2.13;;;1.52;;
59476;SDS011;73078;49.762;6.594;2024-03-02T01:04:05;2.97;;;1.88;;
59476;SDS011;73078;49.762;6.594;2024-03-02T01:06:31;1.83;;;1.70;;
59476;SDS011;73078;49.762;6.594;2024-03-02T01:08:57;2.55;;;1.88;;
59476;SDS011;73078;49.762;6.594;2024-03-02T01:11:23;3.97;;;1.95;;
59476;SDS011;73078;49.762;6.594;2024-03-02T01:13:49;2.45;;;1.70;;
59476;SDS011;73078;49.762;6.594;2024-03-02T01:16:15;3.38;;;1.95;;
59476;SDS011;73078;49.762;6.594;2024-03-02T01:18:41;2.45;;;1.73;;
59476;SDS011;73078;49.762;6.594;2024-03-02T01:21:07;2.22;;;2.00;;
59476;SDS011;73078;49.762;6.594;2024-03-02T01:23:33;3.30;;;2.00;;
59476;SDS011;73078;49.762;6.594;2024-03-02T01:25:59;1.95;;;1.55;;
59476;SDS011;73078;49.762;6.594;2024-03-02T01:28:25;2.80;;;2.03;;
59476;SDS011;73078;49.762;6.594;2024-03-02T01:30:51;2.80;;;1.83;;
59476;SDS011;73078;49.762;6.594;2024-03-02T01:33:17;2.35;;;1.92;;
59476;SDS011;73078;49.762;6.594;2024-03-02T01:35:43;3.60;;;2.00;;
59476;SDS011;73078;49.762;6.594;2024-03-02T01:38:09;1.95;;;1.73;;
59476;SDS011;73078;49.762;6.594;2024-03-02T01:40:36;2.70;;;2.10;;
59476;SDS011;73078;49.762;6.594;2024-03-02T01:43:03;2.70;;;1.80;;
59476;SDS011;73078;49.762;6.594;2024-03-02T01:45:29;3.05;;;2.00;;
59476;SDS011;73078;49.762;6.594;2024-03-02T01:47:55;1.65;;;1.55;;
59476;SDS011;73078;49.762;6.594;2024-03-02T01:50:28;2.10;;;1.90;;
59476;SDS011;73078;49.762;6.594;2024-03-02T01:52:54;3.00;;;2.10;;
59476;SDS011;73078;49.762;6.594;2024-03-02T01:55:21;2.53;;;1.73;;
59476;SDS011;73078;49.762;6.594;2024-03-02T01:57:47;3.05;;;1.70;;
59476;SDS011;73078;49.762;6.594;2024-03-02T02:00:13;1.58;;;1.48;;
59476;SDS011;73078;49.762;6.594;2024-03-02T02:02:39;2.72;;;2.10;;
59476;SDS011;73078;49.762;6.594;2024-03-02T02:05:05;3.85;;;2.30;;
59476;SDS011;73078;49.762;6.594;2024-03-02T02:07:31;2.75;;;1.92;;
59476;SDS011;73078;49.762;6.594;2024-03-02T02:09:58;1.80;;;1.70;;
59476;SDS011;73078;49.762;6.594;2024-03-02T02:12:24;3.42;;;2.00;;
59476;SDS011;73078;49.762;6.594;2024-03-02T02:14:50;1.92;;;1.80;;
59476;SDS011;73078;49.762;6.594;2024-03-02T02:17:16;2.70;;;2.05;;
59476;SDS011;73078;49.762;6.594;2024-03-02T02:19:42;3.53;;;2.20;;
59476;SDS011;73078;49.762;6.594;2024-03-02T02:22:11;2.83;;;2.13;;
59476;SDS011;73078;49.762;6.594;2024-03-02T02:24:40;2.78;;;1.85;;
59476;SDS011;73078;49.762;6.594;2024-03-02T02:27:07;2.20;;;1.92;;
59476;SDS011;73078;49.762;6.594;2024-03-02T02:29:33;1.98;;;1.77;;
59476;SDS011;73078;49.762;6.594;2024-03-02T02:31:59;3.88;;;2.10;;
59476;SDS011;73078;49.762;6.594;2024-03-02T02:34:25;4.05;;;1.80;;
59476;SDS011;73078;49.762;6.594;2024-03-02T02:36:51;4.60;;;2.13;;
59476;SDS011;73078;49.762;6.594;2024-03-02T02:39:17;2.47;;;1.95;;
59476;SDS011;73078;49.762;6.594;2024-03-02T02:41:44;2.65;;;2.20;;
59476;SDS011;73078;49.762;6.594;2024-03-02T02:44:10;3.28;;;1.77;;
59476;SDS011;73078;49.762;6.594;2024-03-02T02:46:38;3.75;;;2.28;;
59476;SDS011;73078;49.762;6.594;2024-03-02T02:49:04;3.00;;;2.05;;
59476;SDS011;73078;49.762;6.594;2024-03-02T02:51:30;3.03;;;2.15;;
59476;SDS011;73078;49.762;6.594;2024-03-02T02:53:56;3.45;;;2.15;;
59476;SDS011;73078;49.762;6.594;2024-03-02T02:56:22;1.73;;;1.63;;
59476;SDS011;73078;49.762;6.594;2024-03-02T02:58:48;3.75;;;1.90;;
59476;SDS011;73078;49.762;6.594;2024-03-02T03:01:17;3.85;;;2.00;;
59476;SDS011;73078;49.762;6.594;2024-03-02T03:03:46;2.80;;;2.00;;
59476;SDS011;73078;49.762;6.594;2024-03-02T03:06:12;3.08;;;2.00;;
59476;SDS011;73078;49.762;6.594;2024-03-02T03:08:38;2.55;;;1.98;;
59476;SDS011;73078;49.762;6.594;2024-03-02T03:11:04;2.67;;;2.10;;
59476;SDS011;73078;49.762;6.594;2024-03-02T03:13:31;3.90;;;2.20;;
59476;SDS011;73078;49.762;6.594;2024-03-02T03:15:57;3.55;;;2.28;;
59476;SDS011;73078;49.762;6.594;2024-03-02T03:18:23;4.00;;;2.33;;
59476;SDS011;73078;49.762;6.594;2024-03-02T03:20:49;3.85;;;2.10;;
59476;SDS011;73078;49.762;6.594;2024-03-02T03:23:15;2.25;;;1.77;;
59476;SDS011;73078;49.762;6.594;2024-03-02T03:25:42;5.00;;;2.33;;
59476;SDS011;73078;49.762;6.594;2024-03-02T03:28:08;4.53;;;2.40;;
59476;SDS011;73078;49.762;6.594;2024-03-02T03:30:37;3.13;;;2.30;;
59476;SDS011;73078;49.762;6.594;2024-03-02T03:33:03;3.60;;;2.40;;
59476;SDS011;73078;49.762;6.594;2024-03-02T03:35:31;5.28;;;2.50;;
59476;SDS011;73078;49.762;6.594;2024-03-02T03:37:57;3.55;;;2.35;;
59476;SDS011;73078;49.762;6.594;2024-03-02T03:40:23;3.33;;;2.47;;
59476;SDS011;73078;49.762;6.594;2024-03-02T03:42:49;4.22;;;2.40;;
59476;SDS011;73078;49.762;6.594;2024-03-02T03:45:15;5.60;;;3.05;;
59476;SDS011;73078;49.762;6.594;2024-03-02T03:47:41;2.95;;;2.25;;
59476;SDS011;73078;49.762;6.594;2024-03-02T03:50:07;4.40;;;2.40;;
59476;SDS011;73078;49.762;6.594;2024-03-02T03:52:33;4.05;;;2.60;;
59476;SDS011;73078;49.762;6.594;2024-03-02T03:55:00;5.22;;;2.60;;
59476;SDS011;73078;49.762;6.594;2024-03-02T03:57:26;4.05;;;2.45;;
59476;SDS011;73078;49.762;6.594;2024-03-02T03:59:52;5.13;;;2.50;;
59476;SDS011;73078;49.762;6.594;2024-03-02T04:02:18;4.68;;;2.72;;
59476;SDS011;73078;49.762;6.594;2024-03-02T04:04:44;3.85;;;2.50;;
59476;SDS011;73078;49.762;6.594;2024-03-02T04:07:11;4.43;;;2.70;;
59476;SDS011;73078;49.762;6.594;2024-03-02T04:09:37;4.40;;;2.75;;
59476;SDS011;73078;49.762;6.594;2024-03-02T04:12:04;3.55;;;2.58;;
59476;SDS011;73078;49.762;6.594;2024-03-02T04:14:30;4.72;;;2.60;;
59476;SDS011;73078;49.762;6.594;2024-03-02T04:16:56;3.97;;;2.72;;
59476;SDS011;73078;49.762;6.594;2024-03-02T04:19:22;3.47;;;2.47;;
59476;SDS011;73078;49.762;6.594;2024-03-02T04:21:48;4.20;;;2.60;;
59476;SDS011;73078;49.762;6.594;2024-03-02T04:24:14;4.28;;;2.70;;
59476;SDS011;73078;49.762;6.594;2024-03-02T04:26:39;3.42;;;2.70;;
59476;SDS011;73078;49.762;6.594;2024-03-02T04:29:05;3.22;;;2.45;;
59476;SDS011;73078;49.762;6.594;2024-03-02T04:31:31;3.35;;;2.33;;
59476;SDS011;73078;49.762;6.594;2024-03-02T04:33:57;4.22;;;2.50;;
59476;SDS011;73078;49.762;6.594;2024-03-02T04:36:23;3.53;;;2.20;;
59476;SDS011;73078;49.762;6.594;2024-03-02T04:38:49;4.78;;;2.53;;
59476;SDS011;73078;49.762;6.594;2024-03-02T04:41:15;3.17;;;2.42;;
59476;SDS011;73078;49.762;6.594;2024-03-02T04:43:42;3.15;;;2.17;;
59476;SDS011;73078;49.762;6.594;2024-03-02T04:46:08;3.05;;;2.20;;
59476;SDS011;73078;49.762;6.594;2024-03-02T04:48:34;5.05;;;2.30;;
59476;SDS011;73078;49.762;6.594;2024-03-02T04:51:00;3.00;;;2.40;;
59476;SDS011;73078;49.762;6.594;2024-03-02T04:53:26;4.15;;;2.20;;
59476;SDS011;73078;49.762;6.594;2024-03-02T04:55:51;2.17;;;1.92;;
59476;SDS011;73078;49.762;6.594;2024-03-02T04:58:43;4.28;;;2.70;;
59476;SDS011;73078;49.762;6.594;2024-03-02T05:01:09;3.83;;;2.60;;
59476;SDS011;73078;49.762;6.594;2024-03-02T05:03:35;4.57;;;2.80;;
59476;SDS011;73078;49.762;6.594;2024-03-02T05:06:01;3.30;;;2.70;;
59476;SDS011;73078;49.762;6.594;2024-03-02T05:08:27;3.83;;;2.80;;
59476;SDS011;73078;49.762;6.594;2024-03-02T05:10:53;5.78;;;2.88;;
59476;SDS011;73078;49.762;6.594;2024-03-02T05:13:19;5.38;;;2.80;;
59476;SDS011;73078;49.762;6.594;2024-03-02T05:15:46;4.25;;;2.63;;
59476;SDS011;73078;49.762;6.594;2024-03-02T05:18:12;3.42;;;2.75;;
59476;SDS011;73078;49.762;6.594;2024-03-02T05:20:37;4.50;;;2.10;;
59476;SDS011;73078;49.762;6.594;2024-03-02T05:23:03;5.65;;;2.30;;
59476;SDS011;73078;49.762;6.594;2024-03-02T05:25:29;4.88;;;2.60;;
59476;SDS011;73078;49.762;6.594;2024-03-02T05:27:55;3.95;;;2.50;;
59476;SDS011;73078;49.762;6.594;2024-03-02T05:30:21;2.70;;;2.30;;
59476;SDS011;73078;49.762;6.594;2024-03-02T05:32:47;2.97;;;2.40;;
59476;SDS011;73078;49.762;6.594;2024-03-02T05:35:13;3.53;;;2.70;;
59476;SDS011;73078;49.762;6.594;2024-03-02T05:37:39;2.63;;;2.20;;
59476;SDS011;73078;49.762;6.594;2024-03-02T05:40:05;3.10;;;2.40;;
59476;SDS011;73078;49.762;6.594;2024-03-02T05:42:32;3.80;;;2.42;;
59476;SDS011;73078;49.762;6.594;2024-03-02T05:44:58;2.83;;;2.20;;
59476;SDS011;73078;49.762;6.594;2024-03-02T05:47:24;2.88;;;2.05;;
59476;SDS011;73078;49.762;6.594;2024-03-02T05:49:49;2.85;;;2.08;;
59476;SDS011;73078;49.762;6.594;2024-03-02T05:52:15;3.75;;;2.08;;
59476;SDS011;73078;49.762;6.594;2024-03-02T05:54:41;2.78;;;1.92;;
59476;SDS011;73078;49.762;6.594;2024-03-02T05:57:07;3.25;;;1.98;;
59476;SDS011;73078;49.762;6.594;2024-03-02T05:59:57;2.67;;;1.90;;
59476;SDS011;73078;49.762;6.594;2024-03-02T06:02:23;2.83;;;2.13;;
59476;SDS011;73078;49.762;6.594;2024-03-02T06:04:49;3.10;;;2.17;;
59476;SDS011;73078;49.762;6.594;2024-03-02T06:07:15;5.32;;;2.33;;
59476;SDS011;73078;49.762;6.594;2024-03-02T06:09:41;4.32;;;2.47;;
59476;SDS011;73078;49.762;6.594;2024-03-02T06:12:07;2.85;;;2.35;;
59476;SDS011;73078;49.762;6.594;2024-03-02T06:14:33;2.70;;;2.20;;
59476;SDS011;73078;49.762;6.594;2024-03-02T06:16:59;3.97;;;2.58;;
59476;SDS011;73078;49.762;6.594;2024-03-02T06:19:25;2.60;;;2.20;;
59476;SDS011;73078;49.762;6.594;2024-03-02T06:21:52;2.17;;;1.80;;
59476;SDS011;73078;49.762;6.594;2024-03-02T06:24:18;3.47;;;2.50;;
59476;SDS011;73078;49.762;6.594;2024-03-02T06:26:44;3.33;;;2.10;;
59476;SDS011;73078;49.762;6.594;2024-03-02T06:29:10;3.53;;;2.22;;
59476;SDS011;73078;49.762;6.594;2024-03-02T06:31:36;2.13;;;1.92;;
59476;SDS011;73078;49.762;6.594;2024-03-02T06:34:02;2.72;;;2.10;;
59476;SDS011;73078;49.762;6.594;2024-03-02T06:36:29;2.85;;;2.10;;
59476;SDS011;73078;49.762;6.594;2024-03-02T06:38:55;3.25;;;2.10;;
59476;SDS011;73078;49.762;6.594;2024-03-02T06:41:21;3.72;;;2.25;;
59476;SDS011;73078;49.762;6.594;2024-03-02T06:43:47;1.50;;;1.40;;
59476;SDS011;73078;49.762;6.594;2024-03-02T06:46:13;2.83;;;2.20;;
59476;SDS011;73078;49.762;6.594;2024-03-02T06:48:40;3.53;;;2.38;;
59476;SDS011;73078;49.762;6.594;2024-03-02T06:51:06;2.95;;;2.47;;
59476;SDS011;73078;49.762;6.594;2024-03-02T06:53:32;3.92;;;2.55;;
59476;SDS011;73078;49.762;6.594;2024-03-02T06:55:58;5.78;;;3.00;;
59476;SDS011;73078;49.762;6.594;2024-03-02T06:58:24;3.25;;;2.45;;
59476;SDS011;73078;49.762;6.594;2024-03-02T07:00:50;3.67;;;2.67;;
59476;SDS011;73078;49.762;6.594;2024-03-02T07:03:17;4.80;;;3.10;;
59476;SDS011;73078;49.762;6.594;2024-03-02T07:05:43;5.13;;;2.80;;
59476;SDS011;73078;49.762;6.594;2024-03-02T07:08:09;3.65;;;2.60;;
59476;SDS011;73078;49.762;6.594;2024-03-02T07:10:35;6.10;;;2.30;;
59476;SDS011;73078;49.762;6.594;2024-03-02T07:13:01;2.97;;;2.13;;
59476;SDS011;73078;49.762;6.594;2024-03-02T07:15:27;2.72;;;2.20;;
59476;SDS011;73078;49.762;6.594;2024-03-02T07:17:53;4.75;;;2.20;;
59476;SDS011;73078;49.762;6.594;2024-03-02T07:20:19;2.88;;;2.17;;
59476;SDS011;73078;49.762;6.594;2024-03-02T07:22:45;3.63;;;2.60;;
59476;SDS011;73078;49.762;6.594;2024-03-02T07:25:11;4.50;;;2.58;;
59476;SDS011;73078;49.762;6.594;2024-03-02T07:27:38;3.95;;;2.30;;
59476;SDS011;73078;49.762;6.594;2024-03-02T07:30:04;5.22;;;3.08;;
59476;SDS011;73078;49.762;6.594;2024-03-02T07:32:30;4.28;;;2.83;;
59476;SDS011;73078;49.762;6.594;2024-03-02T07:34:56;3.92;;;2.60;;
59476;SDS011;73078;49.762;6.594;2024-03-02T07:37:22;4.18;;;2.88;;
59476;SDS011;73078;49.762;6.594;2024-03-02T07:39:48;3.10;;;2.38;;
59476;SDS011;73078;49.762;6.594;2024-03-02T07:42:14;3.03;;;2.28;;
59476;SDS011;73078;49.762;6.594;2024-03-02T07:44:41;4.93;;;2.65;;
59476;SDS011;73078;49.762;6.594;2024-03-02T07:47:07;3.80;;;2.40;;
59476;SDS011;73078;49.762;6.594;2024-03-02T07:49:33;3.33;;;2.30;;
59476;SDS011;73078;49.762;6.594;2024-03-02T07:51:59;3.35;;;2.58;;
59476;SDS011;73078;49.762;6.594;2024-03-02T07:54:25;4.20;;;2.70;;
59476;SDS011;73078;49.762;6.594;2024-03-02T07:56:51;5.55;;;3.05;;
59476;SDS011;73078;49.762;6.594;2024-03-02T07:59:17;6.75;;;3.10;;
59476;SDS011;73078;49.762;6.594;2024-03-02T08:01:43;7.20;;;2.78;;
59476;SDS011;73078;49.762;6.594;2024-03-02T08:04:10;5.10;;;2.92;;
59476;SDS011;73078;49.762;6.594;2024-03-02T08:06:36;6.93;;;3.63;;
59476;SDS011;73078;49.762;6.594;2024-03-02T08:09:02;5.13;;;3.80;;
59476;SDS011;73078;49.762;6.594;2024-03-02T08:11:34;6.03;;;3.47;;
59476;SDS011;73078;49.762;6.594;2024-03-02T08:14:00;7.43;;;3.40;;
59476;SDS011;73078;49.762;6.594;2024-03-02T08:16:26;4.72;;;4.00;;
59476;SDS011;73078;49.762;6.594;2024-03-02T08:18:52;6.43;;;3.60;;
59476;SDS011;73078;49.762;6.594;2024-03-02T08:21:18;7.55;;;4.70;;
59476;SDS011;73078;49.762;6.594;2024-03-02T08:23:44;5.35;;;3.47;;
59476;SDS011;73078;49.762;6.594;2024-03-02T08:26:10;4.78;;;3.40;;
59476;SDS011;73078;49.762;6.594;2024-03-02T08:28:37;8.23;;;3.72;;
59476;SDS011;73078;49.762;6.594;2024-03-02T08:31:05;5.00;;;3.47;;
59476;SDS011;73078;49.762;6.594;2024-03-02T08:33:31;3.95;;;3.20;;
59476;SDS011;73078;49.762;6.594;2024-03-02T08:35:57;4.40;;;2.90;;
59476;SDS011;73078;49.762;6.594;2024-03-02T08:38:23;5.80;;;3.00;;
59476;SDS011;73078;49.762;6.594;2024-03-02T08:40:49;6.50;;;3.08;;
59476;SDS011;73078;49.762;6.594;2024-03-02T08:43:15;4.82;;;3.28;;
59476;SDS011;73078;49.762;6.594;2024-03-02T08:45:42;6.70;;;3.20;;
59476;SDS011;73078;49.762;6.594;2024-03-02T08:48:08;3.25;;;2.55;;
59476;SDS011;73078;49.762;6.594;2024-03-02T08:50:35;4.90;;;2.70;;
59476;SDS011;73078;49.762;6.594;2024-03-02T08:53:01;4.20;;;2.83;;
59476;SDS011;73078;49.762;6.594;2024-03-02T08:55:27;4.32;;;2.53;;
59476;SDS011;73078;49.762;6.594;2024-03-02T08:57:53;3.05;;;2.10;;
59476;SDS011;73078;49.762;6.594;2024-03-02T09:00:19;2.70;;;2.38;;
59476;SDS011;73078;49.762;6.594;2024-03-02T09:02:45;4.30;;;2.85;;
59476;SDS011;73078;49.762;6.594;2024-03-02T09:05:11;3.78;;;2.50;;
59476;SDS011;73078;49.762;6.594;2024-03-02T09:07:37;3.83;;;2.30;;
59476;SDS011;73078;49.762;6.594;2024-03-02T09:10:04;6.05;;;3.08;;
59476;SDS011;73078;49.762;6.594;2024-03-02T09:12:31;3.13;;;2.42;;
59476;SDS011;73078;49.762;6.594;2024-03-02T09:14:57;5.22;;;2.50;;
59476;SDS011;73078;49.762;6.594;2024-03-02T09:17:23;2.95;;;2.05;;
59476;SDS011;73078;49.762;6.594;2024-03-02T09:19:49;2.70;;;1.92;;
59476;SDS011;73078;49.762;6.594;2024-03-02T09:22:17;4.32;;;2.60;;
59476;SDS011;73078;49.762;6.594;2024-03-02T09:24:43;4.70;;;2.88;;
59476;SDS011;73078;49.762;6.594;2024-03-02T09:27:09;4.93;;;2.50;;
59476;SDS011;73078;49.762;6.594;2024-03-02T09:29:35;3.95;;;2.53;;
59476;SDS011;73078;49.762;6.594;2024-03-02T09:32:01;5.45;;;2.90;;
59476;SDS011;73078;49.762;6.594;2024-03-02T09:34:27;4.80;;;2.78;;
59476;SDS011;73078;49.762;6.594;2024-03-02T09:36:53;3.47;;;2.50;;
59476;SDS011;73078;49.762;6.594;2024-03-02T09:39:19;3.17;;;2.17;;
59476;SDS011;73078;49.762;6.594;2024-03-02T09:41:46;2.67;;;2.03;;
59476;SDS011;73078;49.762;6.594;2024-03-02T09:44:12;4.13;;;2.35;;
59476;SDS011;73078;49.762;6.594;2024-03-02T09:46:38;4.00;;;2.58;;
59476;SDS011;73078;49.762;6.594;2024-03-02T09:49:04;5.00;;;2.40;;
59476;SDS011;73078;49.762;6.594;2024-03-02T09:51:31;1.75;;;1.60;;
59476;SDS011;73078;49.762;6.594;2024-03-02T09:53:57;4.57;;;2.30;;
59476;SDS011;73078;49.762;6.594;2024-03-02T09:56:23;4.20;;;2.30;;
59476;SDS011;73078;49.762;6.594;2024-03-02T09:58:49;4.93;;;2.40;;
59476;SDS011;73078;49.762;6.594;2024-03-02T10:01:15;3.20;;;2.20;;
59476;SDS011;73078;49.762;6.594;2024-03-02T10:03:41;6.20;;;2.50;;
59476;SDS011;73078;49.762;6.594;2024-03-02T10:06:20;2.20;;;1.88;;
59476;SDS011;73078;49.762;6.594;2024-03-02T10:08:46;2.60;;;1.95;;
59476;SDS011;73078;49.762;6.594;2024-03-02T10:11:29;3.90;;;2.22;;
59476;SDS011;73078;49.762;6.594;2024-03-02T10:16:41;3.60;;;2.63;;
59476;SDS011;73078;49.762;6.594;2024-03-02T10:21:55;3.08;;;2.10;;
59476;SDS011;73078;49.762;6.594;2024-03-02T10:24:23;4.82;;;2.38;;
59476;SDS011;73078;49.762;6.594;2024-03-02T10:26:50;5.93;;;2.50;;
59476;SDS011;73078;49.762;6.594;2024-03-02T10:29:16;4.22;;;2.50;;
59476;SDS011;73078;49.762;6.594;2024-03-02T10:31:43;4.50;;;2.17;;
59476;SDS011;73078;49.762;6.594;2024-03-02T10:34:10;3.05;;;2.15;;
59476;SDS011;73078;49.762;6.594;2024-03-02T10:36:37;4.18;;;2.60;;
59476;SDS011;73078;49.762;6.594;2024-03-02T10:39:06;4.40;;;2.10;;
59476;SDS011;73078;49.762;6.594;2024-03-02T10:41:33;3.42;;;2.30;;
59476;SDS011;73078;49.762;6.594;2024-03-02T10:43:59;3.80;;;2.30;;
59476;SDS011;73078;49.762;6.594;2024-03-02T10:46:27;3.80;;;2.13;;
59476;SDS011;73078;49.762;6.594;2024-03-02T10:48:57;4.00;;;2.60;;
59476;SDS011;73078;49.762;6.594;2024-03-02T10:51:26;3.85;;;2.35;;
59476;SDS011;73078;49.762;6.594;2024-03-02T10:53:54;4.32;;;2.20;;
59476;SDS011;73078;49.762;6.594;2024-03-02T10:56:42;3.05;;;2.13;;
59476;SDS011;73078;49.762;6.594;2024-03-02T10:59:12;3.30;;;2.17;;
59476;SDS011;73078;49.762;6.594;2024-03-02T11:01:43;4.03;;;2.38;;
59476;SDS011;73078;49.762;6.594;2024-03-02T11:04:12;4.18;;;1.85;;
59476;SDS011;73078;49.762;6.594;2024-03-02T11:06:38;4.00;;;1.92;;
59476;SDS011;73078;49.762;6.594;2024-03-02T11:09:06;2.42;;;2.00;;
59476;SDS011;73078;49.762;6.594;2024-03-02T11:11:39;3.60;;;2.10;;
59476;SDS011;73078;49.762;6.594;2024-03-02T11:14:07;5.07;;;2.50;;
59476;SDS011;73078;49.762;6.594;2024-03-02T11:16:36;3.35;;;2.20;;
59476;SDS011;73078;49.762;6.594;2024-03-02T11:19:13;3.03;;;2.50;;
59476;SDS011;73078;49.762;6.594;2024-03-02T11:21:39;2.85;;;2.28;;
59476;SDS011;73078;49.762;6.594;2024-03-02T11:26:50;4.80;;;2.67;;
59476;SDS011;73078;49.762;6.594;2024-03-02T11:32:03;3.92;;;2.50;;
59476;SDS011;73078;49.762;6.594;2024-03-02T11:34:30;5.03;;;2.78;;
59476;SDS011;73078;49.762;6.594;2024-03-02T11:36:57;4.25;;;2.67;;
59476;SDS011;73078;49.762;6.594;2024-03-02T11:39:24;3.95;;;2.20;;
59476;SDS011;73078;49.762;6.594;2024-03-02T11:41:50;4.45;;;2.92;;
59476;SDS011;73078;49.762;6.594;2024-03-02T11:44:16;3.58;;;2.78;;
59476;SDS011;73078;49.762;6.594;2024-03-02T11:46:44;3.08;;;2.30;;
59476;SDS011;73078;49.762;6.594;2024-03-02T11:49:14;3.60;;;2.45;;
59476;SDS011;73078;49.762;6.594;2024-03-02T11:51:40;4.57;;;2.60;;
59476;SDS011;73078;49.762;6.594;2024-03-02T11:54:16;6.35;;;3.90;;
59476;SDS011;73078;49.762;6.594;2024-03-02T11:56:42;5.80;;;3.67;;
59476;SDS011;73078;49.762;6.594;2024-03-02T11:59:09;7.35;;;4.65;;
59476;SDS011;73078;49.762;6.594;2024-03-02T12:01:35;4.13;;;2.30;;
59476;SDS011;73078;49.762;6.594;2024-03-02T12:04:01;4.95;;;2.50;;
59476;SDS011;73078;49.762;6.594;2024-03-02T12:06:28;3.78;;;2.10;;
59476;SDS011;73078;49.762;6.594;2024-03-02T12:08:54;4.07;;;2.30;;
59476;SDS011;73078;49.762;6.594;2024-03-02T12:11:21;3.53;;;2.30;;
59476;SDS011;73078;49.762;6.594;2024-03-02T12:13:53;4.00;;;2.38;;
59476;SDS011;73078;49.762;6.594;2024-03-02T12:16:23;4.72;;;2.22;;
59476;SDS011;73078;49.762;6.594;2024-03-02T12:18:49;2.60;;;2.00;;
59476;SDS011;73078;49.762;6.594;2024-03-02T12:21:15;3.25;;;1.98;;
59476;SDS011;73078;49.762;6.594;2024-03-02T12:23:41;3.67;;;2.20;;
59476;SDS011;73078;49.762;6.594;2024-03-02T12:26:07;3.40;;;2.30;;
59476;SDS011;73078;49.762;6.594;2024-03-02T12:28:33;3.95;;;2.08;;
59476;SDS011;73078;49.762;6.594;2024-03-02T12:30:59;2.28;;;1.92;;
59476;SDS011;73078;49.762;6.594;2024-03-02T12:33:25;2.00;;;1.77;;
59476;SDS011;73078;49.762;6.594;2024-03-02T12:35:52;2.10;;;1.80;;
59476;SDS011;73078;49.762;6.594;2024-03-02T12:38:18;3.03;;;2.22;;
59476;SDS011;73078;49.762;6.594;2024-03-02T12:40:44;2.30;;;1.60;;
59476;SDS011;73078;49.762;6.594;2024-03-02T12:43:10;3.67;;;3.08;;
59476;SDS011;73078;49.762;6.594;2024-03-02T12:45:36;4.25;;;2.20;;
59476;SDS011;73078;49.762;6.594;2024-03-02T12:48:03;2.13;;;1.80;;
59476;SDS011;73078;49.762;6.594;2024-03-02T12:50:30;4.15;;;1.98;;
59476;SDS011;73078;49.762;6.594;2024-03-02T12:52:56;2.35;;;1.60;;
59476;SDS011;73078;49.762;6.594;2024-03-02T12:55:22;2.45;;;1.80;;
59476;SDS011;73078;49.762;6.594;2024-03-02T12:57:52;2.53;;;1.77;;
59476;SDS011;73078;49.762;6.594;2024-03-02T13:00:18;2.90;;;1.65;;
59476;SDS011;73078;49.762;6.594;2024-03-02T13:02:45;2.17;;;1.90;;
59476;SDS011;73078;49.762;6.594;2024-03-02T13:05:11;2.00;;;1.73;;
59476;SDS011;73078;49.762;6.594;2024-03-02T13:07:38;2.85;;;1.95;;
59476;SDS011;73078;49.762;6.594;2024-03-02T13:10:04;2.58;;;1.92;;
59476;SDS011;73078;49.762;6.594;2024-03-02T13:12:31;1.60;;;1.50;;
59476;SDS011;73078;49.762;6.594;2024-03-02T13:14:58;2.72;;;1.98;;
59476;SDS011;73078;49.762;6.594;2024-03-02T13:17:24;2.45;;;1.90;;
59476;SDS011;73078;49.762;6.594;2024-03-02T13:19:50;3.38;;;1.90;;
59476;SDS011;73078;49.762;6.594;2024-03-02T13:22:17;2.03;;;1.80;;
59476;SDS011;73078;49.762;6.594;2024-03-02T13:24:43;2.78;;;2.00;;
59476;SDS011;73078;49.762;6.594;2024-03-02T13:27:09;2.67;;;1.80;;
59476;SDS011;73078;49.762;6.594;2024-03-02T13:29:35;3.10;;;1.90;;
59476;SDS011;73078;49.762;6.594;2024-03-02T13:32:02;2.13;;;1.70;;
59476;SDS011;73078;49.762;6.594;2024-03-02T13:34:28;3.00;;;1.73;;
59476;SDS011;73078;49.762;6.594;2024-03-02T13:36:54;4.18;;;1.85;;
59476;SDS011;73078;49.762;6.594;2024-03-02T13:39:20;1.63;;;1.52;;
59476;SDS011;73078;49.762;6.594;2024-03-02T13:41:46;3.28;;;1.45;;
59476;SDS011;73078;49.762;6.594;2024-03-02T13:44:21;2.45;;;1.70;;
59476;SDS011;73078;49.762;6.594;2024-03-02T13:46:47;2.78;;;1.45;;
59476;SDS011;73078;49.762;6.594;2024-03-02T13:49:13;1.60;;;1.50;;
59476;SDS011;73078;49.762;6.594;2024-03-02T13:51:39;1.58;;;1.48;;
59476;SDS011;73078;49.762;6.594;2024-03-02T13:54:05;1.50;;;1.40;;
59476;SDS011;73078;49.762;6.594;2024-03-02T13:56:31;1.40;;;1.30;;
59476;SDS011;73078;49.762;6.594;2024-03-02T13:58:57;1.50;;;1.40;;
59476;SDS011;73078;49.762;6.594;2024-03-02T14:01:23;1.52;;;1.40;;
59476;SDS011;73078;49.762;6.594;2024-03-02T14:03:50;1.70;;;1.30;;
59476;SDS011;73078;49.762;6.594;2024-03-02T14:06:17;1.70;;;1.60;;
59476;SDS011;73078;49.762;6.594;2024-03-02T14:08:43;1.48;;;1.38;;
59476;SDS011;73078;49.762;6.594;2024-03-02T14:11:09;1.58;;;1.48;;
59476;SDS011;73078;49.762;6.594;2024-03-02T14:13:40;2.25;;;1.65;;
59476;SDS011;73078;49.762;6.594;2024-03-02T14:16:06;1.80;;;1.58;;
59476;SDS011;73078;49.762;6.594;2024-03-02T14:18:32;1.70;;;1.60;;
59476;SDS011;73078;49.762;6.594;2024-03-02T14:20:58;1.52;;;1.42;;
59476;SDS011;73078;49.762;6.594;2024-03-02T14:23:24;1.70;;;1.60;;
59476;SDS011;73078;49.762;6.594;2024-03-02T14:25:50;2.53;;;1.67;;
59476;SDS011;73078;49.762;6.594;2024-03-02T14:28:16;1.85;;;1.60;;
59476;SDS011;73078;49.762;6.594;2024-03-02T14:30:44;2.35;;;1.77;;
59476;SDS011;73078;49.762;6.594;2024-03-02T14:33:10;2.05;;;1.85;;
59476;SDS011;73078;49.762;6.594;2024-03-02T14:35:36;2.10;;;1.80;;
59476;SDS011;73078;49.762;6.594;2024-03-02T14:38:02;1.90;;;1.70;;
59476;SDS011;73078;49.762;6.594;2024-03-02T14:40:28;2.83;;;1.95;;
59476;SDS011;73078;49.762;6.594;2024-03-02T14:42:54;2.15;;;1.80;;
59476;SDS011;73078;49.762;6.594;2024-03-02T14:45:20;2.90;;;1.40;;
59476;SDS011;73078;49.762;6.594;2024-03-02T14:47:46;2.35;;;1.70;;
59476;SDS011;73078;49.762;6.594;2024-03-02T14:50:12;2.95;;;1.70;;
59476;SDS011;73078;49.762;6.594;2024-03-02T14:52:41;2.25;;;1.50;;
59476;SDS011;73078;49.762;6.594;2024-03-02T14:55:07;1.70;;;1.60;;